createdAt,value
2019-02-15T00:00:11.291Z,29.77
2019-02-15T00:02:40.457Z,31.33
2019-02-15T00:05:09.959Z,32.33
2019-02-15T00:07:39.128Z,31.00
2019-02-15T00:10:08.636Z,30.77
2019-02-15T00:12:37.861Z,30.53
2019-02-15T00:15:07.056Z,31.30
2019-02-15T00:18:10.343Z,30.03
2019-02-15T00:20:46.078Z,30.60
2019-02-15T00:23:15.264Z,29.77
2019-02-15T00:25:44.517Z,30.63
2019-02-15T00:28:13.697Z,32.40
2019-02-15T00:30:43.449Z,31.80
2019-02-15T00:33:12.611Z,30.37
2019-02-15T00:35:41.891Z,30.60
2019-02-15T00:38:11.453Z,31.67
2019-02-15T00:40:40.660Z,30.93
2019-02-15T00:43:09.901Z,30.37
2019-02-15T00:45:47.670Z,30.17
2019-02-15T00:48:19.110Z,32.20
2019-02-15T00:51:07.333Z,31.17
2019-02-15T00:53:45.783Z,30.37
2019-02-15T00:56:49.485Z,30.13
2019-02-15T00:59:38.650Z,31.67
2019-02-15T01:02:26.869Z,31.87
2019-02-15T01:05:15.156Z,32.40
2019-02-15T01:08:10.027Z,32.43
2019-02-15T01:10:45.401Z,32.53
2019-02-15T01:13:17.774Z,32.40
2019-02-15T01:15:46.984Z,33.37
2019-02-15T01:18:16.661Z,32.97
2019-02-15T01:20:45.876Z,35.23
2019-02-15T01:23:15.136Z,34.43
2019-02-15T01:25:54.372Z,32.87
2019-02-15T01:28:37.661Z,34.60
2019-02-15T01:31:26.244Z,33.37
2019-02-15T01:34:07.352Z,32.97
2019-02-15T01:37:11.261Z,32.83
2019-02-15T01:39:52.638Z,33.63
2019-02-15T01:42:26.792Z,31.70
2019-02-15T01:45:00.660Z,32.73
2019-02-15T01:47:48.920Z,32.40
2019-02-15T01:50:18.210Z,32.53
2019-02-15T01:52:47.674Z,33.07
2019-02-15T01:55:17.276Z,32.60
2019-02-15T01:57:46.756Z,33.70
2019-02-15T02:00:17.210Z,33.60
2019-02-15T02:02:46.381Z,32.07
2019-02-15T02:05:15.529Z,32.93
2019-02-15T02:07:44.775Z,31.87
2019-02-15T02:10:14.036Z,31.37
2019-02-15T02:12:43.569Z,33.40
2019-02-15T02:15:13.063Z,34.77
2019-02-15T02:17:42.327Z,31.73
2019-02-15T02:20:11.905Z,33.17
2019-02-15T02:22:41.175Z,32.23
2019-02-15T02:25:10.606Z,32.30
2019-02-15T02:27:39.873Z,33.43
2019-02-15T02:30:10.016Z,33.57
2019-02-15T02:32:39.282Z,32.40
2019-02-15T02:35:09.285Z,32.40
2019-02-15T02:37:38.903Z,30.90
2019-02-15T02:40:08.319Z,31.63
2019-02-15T02:42:37.638Z,31.73
2019-02-15T02:45:07.931Z,30.83
2019-02-15T02:47:37.124Z,31.43
2019-02-15T02:50:06.486Z,29.57
2019-02-15T02:52:35.760Z,29.27
2019-02-15T02:55:05.028Z,30.70
2019-02-15T02:57:34.192Z,29.30
2019-02-15T03:00:04.258Z,29.70
2019-02-15T03:02:33.417Z,29.73
2019-02-15T03:05:02.960Z,28.40
2019-02-15T03:07:32.237Z,26.20
2019-02-15T03:10:01.872Z,29.00
2019-02-15T03:12:31.096Z,28.37
2019-02-15T03:15:00.578Z,26.83
2019-02-15T03:17:30.254Z,27.40
2019-02-15T03:19:59.415Z,27.63
2019-02-15T03:22:28.601Z,26.90
2019-02-15T03:24:57.841Z,27.33
2019-02-15T03:27:27.081Z,27.53
2019-02-15T03:29:56.329Z,25.53
2019-02-15T03:32:25.487Z,26.23
2019-02-15T03:34:54.758Z,25.87
2019-02-15T03:37:42.991Z,27.03
2019-02-15T03:40:24.749Z,27.30
2019-02-15T03:42:53.940Z,26.97
2019-02-15T03:45:23.188Z,26.13
2019-02-15T03:47:52.747Z,25.60
2019-02-15T03:50:21.917Z,26.63
2019-02-15T03:52:51.152Z,25.37
2019-02-15T03:55:20.343Z,25.70
2019-02-15T03:57:49.491Z,25.87
2019-02-15T04:00:18.706Z,27.07
2019-02-15T04:02:48.180Z,26.70
2019-02-15T04:05:17.357Z,25.57
2019-02-15T04:07:46.868Z,25.60
2019-02-15T04:10:16.225Z,25.87
2019-02-15T04:12:45.489Z,25.87
2019-02-15T04:15:14.782Z,26.63
2019-02-15T04:17:44.282Z,26.67
2019-02-15T04:20:13.464Z,25.10
2019-02-15T04:22:42.784Z,26.10
2019-02-15T04:25:12.644Z,24.77
2019-02-15T04:27:41.848Z,25.10
2019-02-15T04:30:11.178Z,25.73
2019-02-15T04:32:40.382Z,25.47
2019-02-15T04:35:09.886Z,25.87
2019-02-15T04:37:39.115Z,24.20
2019-02-15T04:40:09.279Z,25.23
2019-02-15T04:42:38.813Z,25.83
2019-02-15T04:45:08.628Z,25.93
2019-02-15T04:47:38.145Z,25.37
2019-02-15T04:50:09.069Z,25.20
2019-02-15T04:52:38.307Z,25.30
2019-02-15T04:55:07.676Z,24.17
2019-02-15T04:57:37.570Z,24.73
2019-02-15T05:00:07.218Z,23.83
2019-02-15T05:02:36.507Z,24.37
2019-02-15T05:05:06.140Z,23.23
2019-02-15T05:07:35.375Z,23.00
2019-02-15T05:10:04.744Z,23.50
2019-02-15T05:12:33.885Z,24.40
2019-02-15T05:15:03.442Z,24.50
2019-02-15T05:17:32.866Z,23.77
2019-02-15T05:20:02.677Z,23.60
2019-02-15T05:22:31.857Z,22.57
2019-02-15T05:25:01.433Z,22.87
2019-02-15T05:27:30.682Z,23.60
2019-02-15T05:30:00.204Z,23.03
2019-02-15T05:32:29.996Z,23.93
2019-02-15T05:35:00.025Z,22.27
2019-02-15T05:37:29.321Z,23.10
2019-02-15T05:39:58.833Z,22.63
2019-02-15T05:42:28.098Z,23.90
2019-02-15T05:45:03.524Z,23.20
2019-02-15T05:47:30.014Z,23.90
2019-02-15T05:49:59.469Z,22.87
2019-02-15T05:52:28.754Z,21.77
2019-02-15T05:54:57.921Z,23.43
2019-02-15T05:57:27.097Z,22.40
2019-02-15T05:59:56.563Z,21.80
2019-02-15T06:02:26.075Z,22.57
2019-02-15T06:04:55.770Z,22.00
2019-02-15T06:07:24.978Z,22.60
2019-02-15T06:09:54.587Z,22.00
2019-02-15T06:12:23.760Z,21.70
2019-02-15T06:14:53.312Z,23.17
2019-02-15T06:17:22.816Z,23.57
2019-02-15T06:19:52.149Z,22.20
2019-02-15T06:22:21.673Z,23.70
2019-02-15T06:24:50.887Z,22.30
2019-02-15T06:27:20.529Z,23.20
2019-02-15T06:29:50.122Z,24.23
2019-02-15T06:32:19.389Z,25.70
2019-02-15T06:34:48.636Z,27.83
2019-02-15T06:37:17.818Z,32.43
2019-02-15T06:39:47.859Z,42.40
2019-02-15T06:42:17.684Z,42.70
2019-02-15T06:44:46.943Z,35.97
2019-02-15T06:47:16.218Z,33.53
2019-02-15T06:49:45.490Z,31.10
2019-02-15T06:52:14.763Z,28.07
2019-02-15T06:54:44.430Z,27.17
2019-02-15T06:57:13.758Z,25.50
2019-02-15T07:00:01.951Z,23.80
2019-02-15T07:02:39.192Z,22.80
2019-02-15T07:05:26.114Z,23.43
2019-02-15T07:07:55.822Z,21.53
2019-02-15T07:10:25.059Z,22.37
2019-02-15T07:12:54.291Z,22.30
2019-02-15T07:15:33.136Z,21.50
2019-02-15T07:17:55.098Z,22.57
2019-02-15T07:20:24.314Z,21.57
2019-02-15T07:22:53.917Z,21.30
2019-02-15T07:25:23.542Z,20.80
2019-02-15T07:27:52.807Z,20.00
2019-02-15T07:30:22.101Z,19.07
2019-02-15T07:32:51.717Z,20.17
2019-02-15T07:35:21.311Z,20.33
2019-02-15T07:37:50.555Z,19.37
2019-02-15T07:40:19.845Z,19.87
2019-02-15T07:42:49.127Z,19.73
2019-02-15T07:45:18.494Z,20.27
2019-02-15T07:47:55.421Z,20.90
2019-02-15T07:50:24.932Z,23.17
2019-02-15T07:52:54.125Z,24.07
2019-02-15T07:55:23.659Z,25.70
2019-02-15T07:57:52.822Z,24.30
2019-02-15T08:00:22.319Z,24.63
2019-02-15T08:02:51.809Z,25.03
2019-02-15T08:05:21.093Z,25.27
2019-02-15T08:07:50.634Z,22.67
2019-02-15T08:10:20.185Z,21.53
2019-02-15T08:12:49.462Z,21.17
2019-02-15T08:15:19.022Z,21.57
2019-02-15T08:17:48.606Z,19.63
2019-02-15T08:20:17.772Z,20.30
2019-02-15T08:22:47.346Z,17.47
2019-02-15T08:25:17.274Z,19.50
2019-02-15T08:27:46.593Z,17.77
2019-02-15T08:30:15.845Z,18.47
2019-02-15T08:32:45.347Z,17.10
2019-02-15T08:35:14.594Z,18.87
2019-02-15T08:37:43.842Z,17.53
2019-02-15T08:40:13.014Z,17.73
2019-02-15T08:42:42.202Z,17.40
2019-02-15T08:45:12.715Z,17.33
2019-02-15T08:47:42.257Z,16.80
2019-02-15T08:50:11.771Z,16.37
2019-02-15T08:52:40.978Z,17.77
2019-02-15T08:55:10.669Z,17.03
2019-02-15T08:57:40.182Z,17.63
2019-02-15T09:00:10.641Z,16.83
2019-02-15T09:02:40.525Z,16.67
2019-02-15T09:05:10.921Z,18.10
2019-02-15T09:07:40.121Z,17.70
2019-02-15T09:10:10.843Z,17.97
2019-02-15T09:12:40.120Z,18.57
2019-02-15T09:15:12.485Z,17.00
2019-02-15T09:17:41.892Z,17.10
2019-02-15T09:20:11.909Z,17.87
2019-02-15T09:22:41.171Z,16.27
2019-02-15T09:25:10.707Z,16.43
2019-02-15T09:27:50.649Z,16.63
2019-02-15T09:30:19.897Z,16.83
2019-02-15T09:32:49.430Z,15.97
2019-02-15T09:35:18.623Z,15.87
2019-02-15T09:37:48.193Z,14.77
2019-02-15T09:40:17.360Z,14.93
2019-02-15T09:42:46.595Z,14.10
2019-02-15T09:45:16.125Z,14.23
2019-02-15T09:47:45.367Z,14.33
2019-02-15T09:50:14.575Z,13.83
2019-02-15T09:52:44.104Z,13.23
2019-02-15T09:55:13.265Z,13.33
2019-02-15T09:57:42.542Z,13.97
2019-02-15T10:00:12.348Z,13.73
2019-02-15T10:02:41.872Z,13.13
2019-02-15T10:05:11.452Z,13.33
2019-02-15T10:07:40.689Z,13.37
2019-02-15T10:10:10.308Z,12.73
2019-02-15T10:12:39.588Z,12.90
2019-02-15T10:15:09.335Z,13.30
2019-02-15T10:17:39.141Z,12.20
2019-02-15T10:20:08.316Z,12.03
2019-02-15T10:22:38.001Z,12.57
2019-02-15T10:25:07.629Z,12.77
2019-02-15T10:27:36.788Z,11.90
2019-02-15T10:30:06.728Z,12.07
2019-02-15T10:32:35.967Z,12.33
2019-02-15T10:35:06.340Z,12.50
2019-02-15T10:37:35.578Z,12.27
2019-02-15T10:40:05.262Z,11.80
2019-02-15T10:42:34.436Z,12.03
2019-02-15T10:45:03.634Z,12.40
2019-02-15T10:47:32.797Z,11.43
2019-02-15T10:50:02.011Z,12.33
2019-02-15T10:52:31.267Z,12.27
2019-02-15T10:55:00.896Z,12.03
2019-02-15T10:57:30.153Z,11.43
2019-02-15T10:59:59.695Z,11.90
2019-02-15T11:02:28.953Z,11.40
2019-02-15T11:04:58.169Z,12.07
2019-02-15T11:07:27.704Z,12.10
2019-02-15T11:09:56.978Z,11.40
2019-02-15T11:12:26.231Z,11.70
2019-02-15T11:14:55.399Z,11.37
2019-02-15T11:17:24.569Z,11.17
2019-02-15T11:19:53.768Z,10.90
2019-02-15T11:22:42.334Z,11.43
2019-02-15T11:25:12.496Z,11.37
2019-02-15T11:27:41.773Z,11.23
2019-02-15T11:30:12.713Z,11.60
2019-02-15T11:32:42.270Z,11.13
2019-02-15T11:35:12.455Z,10.67
2019-02-15T11:37:41.753Z,12.23
2019-02-15T11:40:12.479Z,11.50
2019-02-15T11:42:41.739Z,11.03
2019-02-15T11:45:11.857Z,11.65
2019-02-15T11:47:41.045Z,11.47
2019-02-15T11:50:11.662Z,12.70
2019-02-15T11:52:41.261Z,11.12
2019-02-15T11:55:11.397Z,10.35
2019-02-15T11:57:40.848Z,11.25
2019-02-15T12:00:14.542Z,11.50
2019-02-15T12:02:44.046Z,11.43
2019-02-15T12:05:13.517Z,11.57
2019-02-15T12:07:43.668Z,11.93
2019-02-15T12:10:13.263Z,12.07
2019-02-15T12:12:42.515Z,12.05
2019-02-15T12:15:12.053Z,11.25
2019-02-15T12:17:41.660Z,10.70
2019-02-15T12:20:10.940Z,10.93
2019-02-15T12:22:40.115Z,10.20
2019-02-15T12:25:09.573Z,11.43
2019-02-15T12:27:39.038Z,10.48
2019-02-15T12:30:09.916Z,10.48
2019-02-15T12:32:39.171Z,16.57
2019-02-15T12:35:09.299Z,16.95
2019-02-15T12:37:38.548Z,13.13
2019-02-15T12:40:07.791Z,22.45
2019-02-15T12:42:37.044Z,13.32
2019-02-15T12:45:07.169Z,11.18
2019-02-15T12:47:36.764Z,12.98
2019-02-15T12:50:07.804Z,12.03
2019-02-15T12:52:37.437Z,12.03
2019-02-15T12:55:06.702Z,12.53
2019-02-15T12:57:35.943Z,12.07
2019-02-15T13:00:06.306Z,11.30
2019-02-15T13:02:35.477Z,12.37
2019-02-15T13:05:05.351Z,11.38
2019-02-15T13:07:34.900Z,10.03
2019-02-15T13:10:05.449Z,10.80
2019-02-15T13:12:35.033Z,10.58
2019-02-15T13:15:05.223Z,10.60
2019-02-15T13:17:34.742Z,10.30
2019-02-15T13:20:04.074Z,11.18
2019-02-15T13:22:33.387Z,10.98
2019-02-15T13:25:02.860Z,11.10
2019-02-15T13:27:32.357Z,10.72
2019-02-15T13:30:01.698Z,11.08
2019-02-15T13:32:30.957Z,10.38
2019-02-15T13:35:00.529Z,10.95
2019-02-15T13:37:29.741Z,11.00
2019-02-15T13:39:58.996Z,10.15
2019-02-15T13:42:29.107Z,10.03
2019-02-15T13:44:58.854Z,10.50
2019-02-15T13:47:34.245Z,9.93
2019-02-15T13:49:58.942Z,10.58
2019-02-15T13:52:28.132Z,10.50
2019-02-15T13:54:57.396Z,10.32
2019-02-15T13:57:27.711Z,10.65
2019-02-15T13:59:57.229Z,10.80
2019-02-15T14:02:26.401Z,11.15
2019-02-15T14:04:55.680Z,10.78
2019-02-15T14:07:24.842Z,10.68
2019-02-15T14:09:54.023Z,10.35
2019-02-15T14:12:23.316Z,11.45
2019-02-15T14:14:53.200Z,11.10
2019-02-15T14:17:22.474Z,10.60
2019-02-15T14:19:51.655Z,10.63
2019-02-15T14:22:20.865Z,10.58
2019-02-15T14:24:50.086Z,11.03
2019-02-15T14:27:19.307Z,11.18
2019-02-15T14:29:48.452Z,10.35
2019-02-15T14:32:18.016Z,11.95
2019-02-15T14:34:47.821Z,10.75
2019-02-15T14:37:17.742Z,10.38
2019-02-15T14:39:47.101Z,11.00
2019-02-15T14:42:16.848Z,10.85
2019-02-15T14:44:46.079Z,10.23
2019-02-15T14:47:15.297Z,9.25
2019-02-15T14:49:44.892Z,9.28
2019-02-15T14:52:14.159Z,8.48
2019-02-15T14:54:43.433Z,8.78
2019-02-15T14:57:12.691Z,8.73
2019-02-15T14:59:41.957Z,8.58
2019-02-15T15:02:11.128Z,9.20
2019-02-15T15:04:41.453Z,9.23
2019-02-15T15:07:10.859Z,8.48
2019-02-15T15:09:40.441Z,9.30
2019-02-15T15:12:09.755Z,9.17
2019-02-15T15:14:38.955Z,8.83
2019-02-15T15:17:08.198Z,8.37
2019-02-15T15:19:37.754Z,9.03
2019-02-15T15:22:07.032Z,9.00
2019-02-15T15:24:36.276Z,9.43
2019-02-15T15:27:05.851Z,9.87
2019-02-15T15:29:35.449Z,9.07
2019-02-15T15:32:04.718Z,9.80
2019-02-15T15:34:33.933Z,9.37
2019-02-15T15:37:03.258Z,9.33
2019-02-15T15:39:32.522Z,9.83
2019-02-15T15:42:01.712Z,9.07
2019-02-15T15:44:30.909Z,9.40
2019-02-15T15:47:00.176Z,9.63
2019-02-15T15:49:29.452Z,9.77
2019-02-15T15:51:58.959Z,9.90
2019-02-15T15:54:28.686Z,10.30
2019-02-15T15:56:57.986Z,9.13
2019-02-15T15:59:27.641Z,9.97
2019-02-15T16:01:56.970Z,10.83
2019-02-15T16:04:26.162Z,10.47
2019-02-15T16:06:55.449Z,10.00
2019-02-15T16:09:24.745Z,9.97
2019-02-15T16:11:54.003Z,9.73
2019-02-15T16:14:23.293Z,9.80
2019-02-15T16:16:53.254Z,10.13
2019-02-15T16:19:22.580Z,10.70
2019-02-15T16:21:52.171Z,9.03
2019-02-15T16:24:21.320Z,9.83
2019-02-15T16:26:50.566Z,9.93
2019-02-15T16:29:19.882Z,9.93
2019-02-15T16:31:49.131Z,9.50
2019-02-15T16:34:18.398Z,9.33
2019-02-15T16:36:47.645Z,9.30
2019-02-15T16:39:17.293Z,10.17
2019-02-15T16:41:46.496Z,9.60
2019-02-15T16:44:16.182Z,10.47
2019-02-15T16:46:56.017Z,10.33
2019-02-15T16:49:25.351Z,10.20
2019-02-15T16:51:54.513Z,9.97
2019-02-15T16:54:26.732Z,10.33
2019-02-15T16:56:56.033Z,10.20
2019-02-15T16:59:25.632Z,9.60
2019-02-15T17:01:54.899Z,10.03
2019-02-15T17:04:24.157Z,9.97
2019-02-15T17:06:53.442Z,9.23
2019-02-15T17:09:23.174Z,8.60
2019-02-15T17:11:52.331Z,10.53
2019-02-15T17:14:21.578Z,10.17
2019-02-15T17:16:50.814Z,10.33
2019-02-15T17:19:20.471Z,10.73
2019-02-15T17:21:52.637Z,10.80
2019-02-15T17:24:22.622Z,11.07
2019-02-15T17:26:52.429Z,9.67
2019-02-15T17:29:22.878Z,9.63
2019-02-15T17:31:54.198Z,10.17
2019-02-15T17:34:23.690Z,10.63
2019-02-15T17:36:53.272Z,10.40
2019-02-15T17:39:22.480Z,10.20
2019-02-15T17:41:51.756Z,10.13
2019-02-15T17:44:21.146Z,9.67
2019-02-15T17:46:50.328Z,9.60
2019-02-15T17:49:19.964Z,10.43
2019-02-15T17:51:49.257Z,11.50
2019-02-15T17:54:18.910Z,11.70
2019-02-15T17:56:48.587Z,11.97
2019-02-15T17:59:18.269Z,13.20
2019-02-15T18:01:47.581Z,12.40
2019-02-15T18:04:16.883Z,12.80
2019-02-15T18:06:46.205Z,12.97
2019-02-15T18:09:15.569Z,13.20
2019-02-15T18:11:44.773Z,12.67
2019-02-15T18:14:14.394Z,13.87
2019-02-15T18:16:43.917Z,13.33
2019-02-15T18:19:13.282Z,14.57
2019-02-15T18:21:42.911Z,13.60
2019-02-15T18:24:12.214Z,15.87
2019-02-15T18:26:41.881Z,16.70
2019-02-15T18:29:11.227Z,18.03
2019-02-15T18:31:40.583Z,16.13
2019-02-15T18:34:10.215Z,14.70
2019-02-15T18:36:39.501Z,16.30
2019-02-15T18:39:09.422Z,16.17
2019-02-15T18:41:39.010Z,16.57
2019-02-15T18:44:08.309Z,16.70
2019-02-15T18:46:37.664Z,16.67
2019-02-15T18:49:07.283Z,17.03
2019-02-15T18:51:36.565Z,17.43
2019-02-15T18:54:05.854Z,17.63
2019-02-15T18:56:35.150Z,16.47
2019-02-15T18:59:04.369Z,15.53
2019-02-15T19:01:33.672Z,15.30
2019-02-15T19:04:02.973Z,15.67
2019-02-15T19:06:32.560Z,16.60
2019-02-15T19:09:01.923Z,15.70
2019-02-15T19:11:31.434Z,16.60
2019-02-15T19:14:00.592Z,16.67
2019-02-15T19:16:29.852Z,17.33
2019-02-15T19:18:59.114Z,16.77
2019-02-15T19:21:28.349Z,17.57
2019-02-15T19:23:57.570Z,16.63
2019-02-15T19:26:27.192Z,16.03
2019-02-15T19:28:56.752Z,15.93
2019-02-15T19:31:28.834Z,16.83
2019-02-15T19:33:58.808Z,16.07
2019-02-15T19:36:28.381Z,16.53
2019-02-15T19:38:57.654Z,16.10
2019-02-15T19:41:27.376Z,16.13
2019-02-15T19:43:56.928Z,16.57
2019-02-15T19:46:26.084Z,17.40
2019-02-15T19:48:55.737Z,17.60
2019-02-15T19:51:25.002Z,17.70
2019-02-15T19:53:54.549Z,18.73
2019-02-15T19:56:23.783Z,19.37
2019-02-15T19:58:53.002Z,19.40
2019-02-15T20:01:22.192Z,18.90
2019-02-15T20:03:51.438Z,20.20
2019-02-15T20:06:20.785Z,19.97
2019-02-15T20:08:50.019Z,20.50
2019-02-15T20:11:19.201Z,21.60
2019-02-15T20:13:48.487Z,20.70
2019-02-15T20:16:18.047Z,20.63
2019-02-15T20:18:47.315Z,20.20
2019-02-15T20:21:16.523Z,21.73
2019-02-15T20:23:45.782Z,20.30
2019-02-15T20:26:14.947Z,20.23
2019-02-15T20:28:44.914Z,19.70
2019-02-15T20:31:14.227Z,20.97
2019-02-15T20:33:43.619Z,21.47
2019-02-15T20:36:12.861Z,21.90
2019-02-15T20:38:42.431Z,23.30
2019-02-15T20:41:11.669Z,21.07
2019-02-15T20:43:41.073Z,21.87
2019-02-15T20:46:10.240Z,22.37
2019-02-15T20:48:39.755Z,23.97
2019-02-15T20:51:09.372Z,22.57
2019-02-15T20:53:38.574Z,21.60
2019-02-15T20:56:08.022Z,21.57
2019-02-15T20:58:37.266Z,21.30
2019-02-15T21:01:06.506Z,22.17
2019-02-15T21:03:35.698Z,21.70
2019-02-15T21:06:05.435Z,21.47
2019-02-15T21:08:34.908Z,22.27
2019-02-15T21:11:04.116Z,22.83
2019-02-15T21:13:33.439Z,21.97
2019-02-15T21:16:02.736Z,21.47
2019-02-15T21:18:32.001Z,23.03
2019-02-15T21:21:01.647Z,21.70
2019-02-15T21:23:31.222Z,22.43
2019-02-15T21:26:00.390Z,23.63
2019-02-15T21:28:29.747Z,22.73
2019-02-15T21:30:59.371Z,22.00
2019-02-15T21:33:28.865Z,23.70
2019-02-15T21:35:58.373Z,23.53
2019-02-15T21:38:28.035Z,23.73
2019-02-15T21:40:57.245Z,23.80
2019-02-15T21:43:26.861Z,23.83
2019-02-15T21:45:56.339Z,23.43
2019-02-15T21:48:25.875Z,23.00
2019-02-15T21:50:55.087Z,23.20
2019-02-15T21:53:24.312Z,24.33
2019-02-15T21:55:53.486Z,23.53
2019-02-15T21:58:23.025Z,24.87
2019-02-15T22:00:52.266Z,24.47
2019-02-15T22:03:21.816Z,24.53
2019-02-15T22:05:51.072Z,24.23
2019-02-15T22:08:20.299Z,24.37
2019-02-15T22:10:49.559Z,24.50
2019-02-15T22:13:18.798Z,24.20
2019-02-15T22:15:48.253Z,24.27
2019-02-15T22:18:17.505Z,24.87
2019-02-15T22:20:47.073Z,24.43
2019-02-15T22:23:16.319Z,24.33
2019-02-15T22:25:45.541Z,25.03
2019-02-15T22:28:14.820Z,23.67
2019-02-15T22:30:44.048Z,26.17
2019-02-15T22:33:13.238Z,25.23
2019-02-15T22:35:42.412Z,26.40
2019-02-15T22:38:11.955Z,25.20
2019-02-15T22:40:42.900Z,24.70
2019-02-15T22:43:21.102Z,24.17
2019-02-15T22:45:50.905Z,24.53
2019-02-15T22:48:20.089Z,23.53
2019-02-15T22:50:49.574Z,24.00
2019-02-15T22:53:18.813Z,23.97
2019-02-15T22:55:47.971Z,23.37
2019-02-15T22:58:17.506Z,23.17
2019-02-15T23:00:52.862Z,23.97
2019-02-15T23:03:24.017Z,23.43
2019-02-15T23:05:53.189Z,23.10
2019-02-15T23:08:22.480Z,23.83
2019-02-15T23:10:51.871Z,24.27
2019-02-15T23:13:21.142Z,24.20
2019-02-15T23:15:51.058Z,23.47
2019-02-15T23:18:20.999Z,24.23
2019-02-15T23:20:50.235Z,23.90
2019-02-15T23:23:21.702Z,24.87
2019-02-15T23:25:51.332Z,22.93
2019-02-15T23:28:23.441Z,23.23
2019-02-15T23:30:52.799Z,23.33
2019-02-15T23:33:22.013Z,24.10
2019-02-15T23:35:51.271Z,24.43
2019-02-15T23:38:20.434Z,22.90
2019-02-15T23:40:50.337Z,23.97
2019-02-15T23:43:19.517Z,23.77
2019-02-15T23:45:48.749Z,23.20
2019-02-15T23:48:18.301Z,23.27
2019-02-15T23:50:54.395Z,25.20
2019-02-15T23:53:18.436Z,24.83
2019-02-15T23:55:47.694Z,23.43
2019-02-15T23:58:16.925Z,23.17
